sensor_id;sensor_type;location;lat;lon;timestamp;P1;durP1;ratioP1;P2;durP2;ratioP2
53545;SDS011;39432;51.902;10.844;2023-02-10T00:02:10;22.75;;;11.05;;
53545;SDS011;39432;51.902;10.844;2023-02-10T00:04:40;20.08;;;11.68;;
53545;SDS011;39432;51.902;10.844;2023-02-10T00:07:09;20.98;;;12.13;;
53545;SDS011;39432;51.902;10.844;2023-02-10T00:09:39;21.95;;;12.23;;
53545;SDS011;39432;51.902;10.844;2023-02-10T00:12:08;21.30;;;11.75;;
53545;SDS011;39432;51.902;10.844;2023-02-10T00:14:41;23.58;;;12.48;;
53545;SDS011;39432;51.902;10.844;2023-02-10T00:17:11;22.55;;;12.13;;
53545;SDS011;39432;51.902;10.844;2023-02-10T00:19:43;21.75;;;13.20;;
53545;SDS011;39432;51.902;10.844;2023-02-10T00:22:13;23.63;;;12.77;;
53545;SDS011;39432;51.902;10.844;2023-02-10T00:24:43;21.80;;;13.20;;
53545;SDS011;39432;51.902;10.844;2023-02-10T00:27:12;21.77;;;12.80;;
53545;SDS011;39432;51.902;10.844;2023-02-10T00:29:49;20.75;;;12.55;;
53545;SDS011;39432;51.902;10.844;2023-02-10T00:32:19;22.52;;;13.52;;
53545;SDS011;39432;51.902;10.844;2023-02-10T00:34:49;21.80;;;12.75;;
53545;SDS011;39432;51.902;10.844;2023-02-10T00:37:19;23.13;;;13.88;;
53545;SDS011;39432;51.902;10.844;2023-02-10T00:39:51;22.80;;;13.98;;
53545;SDS011;39432;51.902;10.844;2023-02-10T00:42:21;23.40;;;12.85;;
53545;SDS011;39432;51.902;10.844;2023-02-10T00:44:53;20.67;;;12.68;;
53545;SDS011;39432;51.902;10.844;2023-02-10T00:47:23;26.90;;;14.02;;
53545;SDS011;39432;51.902;10.844;2023-02-10T00:49:54;27.10;;;15.18;;
53545;SDS011;39432;51.902;10.844;2023-02-10T00:52:23;26.23;;;14.65;;
53545;SDS011;39432;51.902;10.844;2023-02-10T00:54:56;23.15;;;14.60;;
53545;SDS011;39432;51.902;10.844;2023-02-10T00:57:26;25.55;;;15.23;;
53545;SDS011;39432;51.902;10.844;2023-02-10T00:59:58;25.52;;;15.82;;
53545;SDS011;39432;51.902;10.844;2023-02-10T01:02:29;26.40;;;15.75;;
53545;SDS011;39432;51.902;10.844;2023-02-10T01:04:59;25.63;;;14.80;;
53545;SDS011;39432;51.902;10.844;2023-02-10T01:07:29;26.17;;;16.25;;
53545;SDS011;39432;51.902;10.844;2023-02-10T01:09:59;29.13;;;16.13;;
53545;SDS011;39432;51.902;10.844;2023-02-10T01:12:29;23.15;;;15.15;;
53545;SDS011;39432;51.902;10.844;2023-02-10T01:15:03;28.40;;;16.48;;
53545;SDS011;39432;51.902;10.844;2023-02-10T01:17:33;24.52;;;15.40;;
53545;SDS011;39432;51.902;10.844;2023-02-10T01:20:03;26.88;;;16.10;;
53545;SDS011;39432;51.902;10.844;2023-02-10T01:22:34;26.40;;;15.57;;
53545;SDS011;39432;51.902;10.844;2023-02-10T01:25:05;25.80;;;15.27;;
53545;SDS011;39432;51.902;10.844;2023-02-10T01:27:35;29.35;;;15.80;;
53545;SDS011;39432;51.902;10.844;2023-02-10T01:30:10;30.52;;;17.17;;
53545;SDS011;39432;51.902;10.844;2023-02-10T01:32:40;31.10;;;16.85;;
53545;SDS011;39432;51.902;10.844;2023-02-10T01:35:09;30.35;;;17.85;;
53545;SDS011;39432;51.902;10.844;2023-02-10T01:37:39;29.40;;;17.98;;
53545;SDS011;39432;51.902;10.844;2023-02-10T01:40:09;31.65;;;17.38;;
53545;SDS011;39432;51.902;10.844;2023-02-10T01:42:39;37.53;;;18.98;;
53545;SDS011;39432;51.902;10.844;2023-02-10T01:45:16;32.17;;;18.52;;
53545;SDS011;39432;51.902;10.844;2023-02-10T01:47:48;33.85;;;18.45;;
53545;SDS011;39432;51.902;10.844;2023-02-10T01:50:22;33.47;;;18.55;;
53545;SDS011;39432;51.902;10.844;2023-02-10T01:52:54;35.25;;;18.95;;
53545;SDS011;39432;51.902;10.844;2023-02-10T01:55:26;31.05;;;18.42;;
53545;SDS011;39432;51.902;10.844;2023-02-10T01:58:00;36.08;;;19.52;;
53545;SDS011;39432;51.902;10.844;2023-02-10T02:00:34;35.42;;;19.90;;
53545;SDS011;39432;51.902;10.844;2023-02-10T02:03:04;38.63;;;19.80;;
53545;SDS011;39432;51.902;10.844;2023-02-10T02:05:35;40.47;;;20.15;;
53545;SDS011;39432;51.902;10.844;2023-02-10T02:08:07;39.60;;;20.13;;
53545;SDS011;39432;51.902;10.844;2023-02-10T02:10:44;35.80;;;18.63;;
53545;SDS011;39432;51.902;10.844;2023-02-10T02:13:24;33.63;;;19.65;;
53545;SDS011;39432;51.902;10.844;2023-02-10T02:16:07;40.03;;;19.73;;
53545;SDS011;39432;51.902;10.844;2023-02-10T02:18:45;31.70;;;18.00;;
53545;SDS011;39432;51.902;10.844;2023-02-10T02:27:55;39.60;;;19.27;;
53545;SDS011;39432;51.902;10.844;2023-02-10T02:30:39;41.78;;;20.35;;
53545;SDS011;39432;51.902;10.844;2023-02-10T02:33:21;39.75;;;20.27;;
53545;SDS011;39432;51.902;10.844;2023-02-10T02:35:58;43.60;;;21.23;;
53545;SDS011;39432;51.902;10.844;2023-02-10T02:38:30;38.97;;;20.88;;
53545;SDS011;39432;51.902;10.844;2023-02-10T02:41:07;41.20;;;21.65;;
53545;SDS011;39432;51.902;10.844;2023-02-10T02:43:38;43.63;;;22.10;;
53545;SDS011;39432;51.902;10.844;2023-02-10T02:46:12;40.33;;;20.67;;
53545;SDS011;39432;51.902;10.844;2023-02-10T02:48:56;47.08;;;21.67;;
53545;SDS011;39432;51.902;10.844;2023-02-10T02:51:35;43.78;;;20.80;;
53545;SDS011;39432;51.902;10.844;2023-02-10T02:54:11;43.78;;;20.80;;
53545;SDS011;39432;51.902;10.844;2023-02-10T02:56:49;39.75;;;21.20;;
53545;SDS011;39432;51.902;10.844;2023-02-10T02:59:26;44.58;;;20.88;;
53545;SDS011;39432;51.902;10.844;2023-02-10T03:02:02;40.08;;;20.55;;
53545;SDS011;39432;51.902;10.844;2023-02-10T03:04:41;41.13;;;20.40;;
53545;SDS011;39432;51.902;10.844;2023-02-10T03:07:12;42.22;;;19.73;;
53545;SDS011;39432;51.902;10.844;2023-02-10T03:09:43;42.15;;;20.98;;
53545;SDS011;39432;51.902;10.844;2023-02-10T03:12:12;46.15;;;21.45;;
53545;SDS011;39432;51.902;10.844;2023-02-10T03:14:42;44.05;;;21.08;;
53545;SDS011;39432;51.902;10.844;2023-02-10T03:17:12;45.13;;;20.98;;
53545;SDS011;39432;51.902;10.844;2023-02-10T03:19:44;39.33;;;20.38;;
53545;SDS011;39432;51.902;10.844;2023-02-10T03:22:14;40.75;;;20.08;;
53545;SDS011;39432;51.902;10.844;2023-02-10T03:24:43;41.40;;;20.58;;
53545;SDS011;39432;51.902;10.844;2023-02-10T03:27:13;40.65;;;20.95;;
53545;SDS011;39432;51.902;10.844;2023-02-10T03:29:43;46.90;;;21.92;;
53545;SDS011;39432;51.902;10.844;2023-02-10T03:32:15;44.60;;;21.75;;
53545;SDS011;39432;51.902;10.844;2023-02-10T03:34:47;48.10;;;21.05;;
53545;SDS011;39432;51.902;10.844;2023-02-10T03:37:17;41.50;;;20.45;;
53545;SDS011;39432;51.902;10.844;2023-02-10T03:39:47;53.80;;;22.42;;
53545;SDS011;39432;51.902;10.844;2023-02-10T03:42:16;42.95;;;21.10;;
53545;SDS011;39432;51.902;10.844;2023-02-10T03:44:46;45.30;;;22.00;;
53545;SDS011;39432;51.902;10.844;2023-02-10T03:47:16;47.45;;;22.58;;
53545;SDS011;39432;51.902;10.844;2023-02-10T03:49:48;44.20;;;22.58;;
53545;SDS011;39432;51.902;10.844;2023-02-10T03:52:17;48.85;;;22.42;;
53545;SDS011;39432;51.902;10.844;2023-02-10T03:54:47;46.20;;;22.92;;
53545;SDS011;39432;51.902;10.844;2023-02-10T03:57:17;44.80;;;23.15;;
53545;SDS011;39432;51.902;10.844;2023-02-10T03:59:46;46.60;;;22.17;;
53545;SDS011;39432;51.902;10.844;2023-02-10T04:02:16;40.35;;;20.95;;
53545;SDS011;39432;51.902;10.844;2023-02-10T04:04:48;47.35;;;21.88;;
53545;SDS011;39432;51.902;10.844;2023-02-10T04:07:18;45.95;;;22.17;;
53545;SDS011;39432;51.902;10.844;2023-02-10T04:09:48;49.60;;;23.10;;
53545;SDS011;39432;51.902;10.844;2023-02-10T04:12:17;49.58;;;24.23;;
53545;SDS011;39432;51.902;10.844;2023-02-10T04:14:47;49.30;;;23.67;;
53545;SDS011;39432;51.902;10.844;2023-02-10T04:17:17;52.15;;;23.10;;
53545;SDS011;39432;51.902;10.844;2023-02-10T04:19:49;44.28;;;21.85;;
53545;SDS011;39432;51.902;10.844;2023-02-10T04:22:19;52.88;;;24.23;;
53545;SDS011;39432;51.902;10.844;2023-02-10T04:24:48;49.75;;;24.00;;
53545;SDS011;39432;51.902;10.844;2023-02-10T04:27:18;48.28;;;22.67;;
53545;SDS011;39432;51.902;10.844;2023-02-10T04:29:47;49.22;;;23.83;;
53545;SDS011;39432;51.902;10.844;2023-02-10T04:32:17;48.35;;;23.83;;
53545;SDS011;39432;51.902;10.844;2023-02-10T04:34:49;50.72;;;22.52;;
53545;SDS011;39432;51.902;10.844;2023-02-10T04:37:19;46.25;;;22.15;;
53545;SDS011;39432;51.902;10.844;2023-02-10T04:39:48;49.20;;;24.00;;
53545;SDS011;39432;51.902;10.844;2023-02-10T04:42:18;45.22;;;21.80;;
53545;SDS011;39432;51.902;10.844;2023-02-10T04:44:56;51.50;;;23.55;;
53545;SDS011;39432;51.902;10.844;2023-02-10T04:47:27;52.50;;;24.25;;
53545;SDS011;39432;51.902;10.844;2023-02-10T04:49:59;47.15;;;23.10;;
53545;SDS011;39432;51.902;10.844;2023-02-10T04:52:31;53.80;;;24.77;;
53545;SDS011;39432;51.902;10.844;2023-02-10T04:55:01;50.05;;;24.55;;
53545;SDS011;39432;51.902;10.844;2023-02-10T04:57:30;54.08;;;25.25;;
53545;SDS011;39432;51.902;10.844;2023-02-10T05:00:00;47.80;;;24.95;;
53545;SDS011;39432;51.902;10.844;2023-02-10T05:02:30;48.63;;;24.08;;
53545;SDS011;39432;51.902;10.844;2023-02-10T05:05:03;44.95;;;23.05;;
53545;SDS011;39432;51.902;10.844;2023-02-10T05:07:33;55.75;;;25.15;;
53545;SDS011;39432;51.902;10.844;2023-02-10T05:10:03;54.95;;;24.55;;
53545;SDS011;39432;51.902;10.844;2023-02-10T05:12:33;46.17;;;24.15;;
53545;SDS011;39432;51.902;10.844;2023-02-10T05:15:03;51.97;;;25.30;;
53545;SDS011;39432;51.902;10.844;2023-02-10T05:17:34;53.40;;;25.45;;
53545;SDS011;39432;51.902;10.844;2023-02-10T05:20:07;53.97;;;25.63;;
53545;SDS011;39432;51.902;10.844;2023-02-10T05:22:37;53.63;;;25.65;;
53545;SDS011;39432;51.902;10.844;2023-02-10T05:25:08;55.22;;;26.13;;
53545;SDS011;39432;51.902;10.844;2023-02-10T05:27:38;55.05;;;26.25;;
53545;SDS011;39432;51.902;10.844;2023-02-10T05:30:09;50.80;;;25.77;;
53545;SDS011;39432;51.902;10.844;2023-02-10T05:32:40;55.60;;;25.70;;
53545;SDS011;39432;51.902;10.844;2023-02-10T05:35:12;52.50;;;25.98;;
53545;SDS011;39432;51.902;10.844;2023-02-10T05:37:42;52.30;;;25.75;;
53545;SDS011;39432;51.902;10.844;2023-02-10T05:40:11;54.90;;;27.70;;
53545;SDS011;39432;51.902;10.844;2023-02-10T05:42:41;56.15;;;26.75;;
53545;SDS011;39432;51.902;10.844;2023-02-10T05:45:10;54.60;;;25.75;;
53545;SDS011;39432;51.902;10.844;2023-02-10T05:47:40;52.75;;;25.90;;
53545;SDS011;39432;51.902;10.844;2023-02-10T05:50:12;57.78;;;27.08;;
53545;SDS011;39432;51.902;10.844;2023-02-10T05:52:42;56.05;;;25.98;;
53545;SDS011;39432;51.902;10.844;2023-02-10T05:55:12;48.92;;;24.38;;
53545;SDS011;39432;51.902;10.844;2023-02-10T05:57:42;53.45;;;25.45;;
53545;SDS011;39432;51.902;10.844;2023-02-10T06:00:13;49.40;;;25.55;;
53545;SDS011;39432;51.902;10.844;2023-02-10T06:02:44;57.17;;;25.98;;
53545;SDS011;39432;51.902;10.844;2023-02-10T06:05:16;57.95;;;25.30;;
53545;SDS011;39432;51.902;10.844;2023-02-10T06:07:46;53.08;;;24.58;;
53545;SDS011;39432;51.902;10.844;2023-02-10T06:10:15;54.38;;;24.88;;
53545;SDS011;39432;51.902;10.844;2023-02-10T06:12:45;53.22;;;25.70;;
53545;SDS011;39432;51.902;10.844;2023-02-10T06:15:15;59.13;;;26.67;;
53545;SDS011;39432;51.902;10.844;2023-02-10T06:17:44;59.42;;;26.60;;
53545;SDS011;39432;51.902;10.844;2023-02-10T06:20:16;50.25;;;26.05;;
53545;SDS011;39432;51.902;10.844;2023-02-10T06:22:49;47.83;;;25.42;;
53545;SDS011;39432;51.902;10.844;2023-02-10T06:25:18;59.83;;;25.40;;
53545;SDS011;39432;51.902;10.844;2023-02-10T06:27:48;52.58;;;24.38;;
53545;SDS011;39432;51.902;10.844;2023-02-10T06:30:18;55.95;;;26.17;;
53545;SDS011;39432;51.902;10.844;2023-02-10T06:32:51;51.17;;;24.75;;
53545;SDS011;39432;51.902;10.844;2023-02-10T06:35:23;49.30;;;25.30;;
53545;SDS011;39432;51.902;10.844;2023-02-10T06:37:52;49.75;;;24.95;;
53545;SDS011;39432;51.902;10.844;2023-02-10T06:40:22;49.33;;;24.35;;
53545;SDS011;39432;51.902;10.844;2023-02-10T06:42:52;50.47;;;25.13;;
53545;SDS011;39432;51.902;10.844;2023-02-10T06:45:21;46.92;;;23.40;;
53545;SDS011;39432;51.902;10.844;2023-02-10T06:47:51;43.50;;;22.13;;
53545;SDS011;39432;51.902;10.844;2023-02-10T06:50:23;44.42;;;22.42;;
53545;SDS011;39432;51.902;10.844;2023-02-10T06:52:53;49.00;;;22.35;;
53545;SDS011;39432;51.902;10.844;2023-02-10T06:55:23;45.75;;;21.85;;
53545;SDS011;39432;51.902;10.844;2023-02-10T06:57:52;43.15;;;20.67;;
53545;SDS011;39432;51.902;10.844;2023-02-10T07:00:22;43.78;;;22.20;;
53545;SDS011;39432;51.902;10.844;2023-02-10T07:02:52;44.90;;;20.95;;
53545;SDS011;39432;51.902;10.844;2023-02-10T07:05:24;43.97;;;21.17;;
53545;SDS011;39432;51.902;10.844;2023-02-10T07:07:54;41.20;;;20.55;;
53545;SDS011;39432;51.902;10.844;2023-02-10T07:10:25;39.85;;;20.50;;
53545;SDS011;39432;51.902;10.844;2023-02-10T07:12:55;42.28;;;20.13;;
53545;SDS011;39432;51.902;10.844;2023-02-10T07:15:25;37.03;;;18.65;;
53545;SDS011;39432;51.902;10.844;2023-02-10T07:17:55;29.48;;;16.63;;
53545;SDS011;39432;51.902;10.844;2023-02-10T07:20:27;40.05;;;18.23;;
53545;SDS011;39432;51.902;10.844;2023-02-10T07:22:57;32.70;;;16.55;;
53545;SDS011;39432;51.902;10.844;2023-02-10T07:25:27;35.55;;;17.30;;
53545;SDS011;39432;51.902;10.844;2023-02-10T07:27:57;32.13;;;16.05;;
53545;SDS011;39432;51.902;10.844;2023-02-10T07:30:26;36.00;;;16.83;;
53545;SDS011;39432;51.902;10.844;2023-02-10T07:32:56;33.78;;;16.98;;
53545;SDS011;39432;51.902;10.844;2023-02-10T07:35:29;39.00;;;16.65;;
53545;SDS011;39432;51.902;10.844;2023-02-10T07:37:58;36.00;;;17.90;;
53545;SDS011;39432;51.902;10.844;2023-02-10T07:40:28;31.08;;;15.55;;
53545;SDS011;39432;51.902;10.844;2023-02-10T07:42:58;35.13;;;17.55;;
53545;SDS011;39432;51.902;10.844;2023-02-10T07:45:37;34.92;;;15.52;;
53545;SDS011;39432;51.902;10.844;2023-02-10T07:48:07;34.90;;;16.75;;
53545;SDS011;39432;51.902;10.844;2023-02-10T07:50:39;37.55;;;17.20;;
53545;SDS011;39432;51.902;10.844;2023-02-10T07:53:09;38.97;;;17.58;;
53545;SDS011;39432;51.902;10.844;2023-02-10T07:55:39;43.72;;;18.40;;
53545;SDS011;39432;51.902;10.844;2023-02-10T07:58:09;33.72;;;17.55;;
53545;SDS011;39432;51.902;10.844;2023-02-10T08:00:38;38.40;;;18.23;;
53545;SDS011;39432;51.902;10.844;2023-02-10T08:03:09;38.78;;;19.10;;
53545;SDS011;39432;51.902;10.844;2023-02-10T08:05:43;33.00;;;17.52;;
53545;SDS011;39432;51.902;10.844;2023-02-10T08:08:15;39.58;;;17.98;;
53545;SDS011;39432;51.902;10.844;2023-02-10T08:10:44;35.03;;;16.83;;
53545;SDS011;39432;51.902;10.844;2023-02-10T08:13:14;33.20;;;17.20;;
53545;SDS011;39432;51.902;10.844;2023-02-10T08:15:44;33.50;;;17.35;;
53545;SDS011;39432;51.902;10.844;2023-02-10T08:18:14;33.50;;;16.75;;
53545;SDS011;39432;51.902;10.844;2023-02-10T08:20:47;33.65;;;17.10;;
53545;SDS011;39432;51.902;10.844;2023-02-10T08:23:17;36.58;;;17.23;;
53545;SDS011;39432;51.902;10.844;2023-02-10T08:25:48;31.58;;;16.80;;
53545;SDS011;39432;51.902;10.844;2023-02-10T08:28:18;37.05;;;17.83;;
53545;SDS011;39432;51.902;10.844;2023-02-10T08:30:48;37.92;;;18.75;;
53545;SDS011;39432;51.902;10.844;2023-02-10T08:33:18;36.65;;;17.77;;
53545;SDS011;39432;51.902;10.844;2023-02-10T08:35:50;35.88;;;19.23;;
53545;SDS011;39432;51.902;10.844;2023-02-10T08:38:20;35.50;;;18.52;;
53545;SDS011;39432;51.902;10.844;2023-02-10T08:40:53;31.30;;;16.35;;
53545;SDS011;39432;51.902;10.844;2023-02-10T08:43:24;33.28;;;16.85;;
53545;SDS011;39432;51.902;10.844;2023-02-10T08:45:54;38.40;;;16.80;;
53545;SDS011;39432;51.902;10.844;2023-02-10T08:48:25;34.40;;;16.33;;
53545;SDS011;39432;51.902;10.844;2023-02-10T08:50:59;34.88;;;17.05;;
53545;SDS011;39432;51.902;10.844;2023-02-10T08:53:29;32.55;;;16.80;;
53545;SDS011;39432;51.902;10.844;2023-02-10T08:55:59;36.15;;;17.63;;
53545;SDS011;39432;51.902;10.844;2023-02-10T08:58:31;30.45;;;17.70;;
53545;SDS011;39432;51.902;10.844;2023-02-10T09:01:00;45.60;;;21.52;;
53545;SDS011;39432;51.902;10.844;2023-02-10T09:03:30;40.53;;;17.67;;
53545;SDS011;39432;51.902;10.844;2023-02-10T09:06:02;34.90;;;17.20;;
53545;SDS011;39432;51.902;10.844;2023-02-10T09:08:32;33.78;;;15.48;;
53545;SDS011;39432;51.902;10.844;2023-02-10T09:11:04;31.13;;;15.20;;
53545;SDS011;39432;51.902;10.844;2023-02-10T09:13:34;29.60;;;15.20;;
53545;SDS011;39432;51.902;10.844;2023-02-10T09:16:04;31.10;;;15.10;;
53545;SDS011;39432;51.902;10.844;2023-02-10T09:18:34;26.13;;;14.00;;
53545;SDS011;39432;51.902;10.844;2023-02-10T09:21:08;27.40;;;13.73;;
53545;SDS011;39432;51.902;10.844;2023-02-10T09:23:38;28.45;;;14.05;;
53545;SDS011;39432;51.902;10.844;2023-02-10T09:26:09;28.67;;;13.40;;
53545;SDS011;39432;51.902;10.844;2023-02-10T09:28:39;25.10;;;13.20;;
53545;SDS011;39432;51.902;10.844;2023-02-10T09:31:09;25.75;;;13.30;;
53545;SDS011;39432;51.902;10.844;2023-02-10T09:33:40;23.58;;;13.27;;
53545;SDS011;39432;51.902;10.844;2023-02-10T09:36:15;23.42;;;12.57;;
53545;SDS011;39432;51.902;10.844;2023-02-10T09:38:45;25.63;;;12.05;;
53545;SDS011;39432;51.902;10.844;2023-02-10T09:41:18;25.40;;;12.80;;
53545;SDS011;39432;51.902;10.844;2023-02-10T09:44:03;28.58;;;12.68;;
53545;SDS011;39432;51.902;10.844;2023-02-10T09:46:41;23.40;;;12.45;;
53545;SDS011;39432;51.902;10.844;2023-02-10T09:49:22;28.42;;;12.10;;
53545;SDS011;39432;51.902;10.844;2023-02-10T09:52:12;26.38;;;12.32;;
53545;SDS011;39432;51.902;10.844;2023-02-10T09:54:47;24.90;;;10.73;;
53545;SDS011;39432;51.902;10.844;2023-02-10T09:57:19;27.40;;;10.35;;
53545;SDS011;39432;51.902;10.844;2023-02-10T09:59:51;23.10;;;10.77;;
53545;SDS011;39432;51.902;10.844;2023-02-10T10:02:26;29.60;;;13.88;;
53545;SDS011;39432;51.902;10.844;2023-02-10T10:05:00;30.43;;;10.80;;
53545;SDS011;39432;51.902;10.844;2023-02-10T10:07:48;22.55;;;11.32;;
53545;SDS011;39432;51.902;10.844;2023-02-10T10:10:20;22.42;;;10.40;;
53545;SDS011;39432;51.902;10.844;2023-02-10T10:12:54;19.00;;;9.60;;
53545;SDS011;39432;51.902;10.844;2023-02-10T10:15:24;20.25;;;10.93;;
53545;SDS011;39432;51.902;10.844;2023-02-10T10:18:05;20.40;;;10.73;;
53545;SDS011;39432;51.902;10.844;2023-02-10T10:20:49;25.42;;;11.07;;
53545;SDS011;39432;51.902;10.844;2023-02-10T10:23:28;21.75;;;10.95;;
53545;SDS011;39432;51.902;10.844;2023-02-10T10:26:15;27.15;;;13.93;;
53545;SDS011;39432;51.902;10.844;2023-02-10T10:29:06;20.10;;;8.48;;
53545;SDS011;39432;51.902;10.844;2023-02-10T10:31:50;20.52;;;11.07;;
53545;SDS011;39432;51.902;10.844;2023-02-10T10:37:58;22.33;;;11.07;;
53545;SDS011;39432;51.902;10.844;2023-02-10T10:40:31;26.63;;;11.55;;
53545;SDS011;39432;51.902;10.844;2023-02-10T10:43:03;22.48;;;11.68;;
53545;SDS011;39432;51.902;10.844;2023-02-10T10:45:33;21.73;;;10.77;;
53545;SDS011;39432;51.902;10.844;2023-02-10T10:48:09;22.85;;;11.20;;
53545;SDS011;39432;51.902;10.844;2023-02-10T10:50:43;23.13;;;11.50;;
53545;SDS011;39432;51.902;10.844;2023-02-10T10:53:14;22.52;;;10.50;;
53545;SDS011;39432;51.902;10.844;2023-02-10T10:55:49;20.58;;;10.57;;
53545;SDS011;39432;51.902;10.844;2023-02-10T10:58:23;21.23;;;11.13;;
53545;SDS011;39432;51.902;10.844;2023-02-10T11:00:55;22.83;;;11.05;;
53545;SDS011;39432;51.902;10.844;2023-02-10T11:03:27;21.20;;;11.10;;
53545;SDS011;39432;51.902;10.844;2023-02-10T11:05:58;26.48;;;11.43;;
53545;SDS011;39432;51.902;10.844;2023-02-10T11:08:33;26.58;;;11.10;;
53545;SDS011;39432;51.902;10.844;2023-02-10T11:11:10;16.67;;;8.57;;
53545;SDS011;39432;51.902;10.844;2023-02-10T11:14:02;24.02;;;11.70;;
53545;SDS011;39432;51.902;10.844;2023-02-10T11:16:40;25.33;;;10.85;;
53545;SDS011;39432;51.902;10.844;2023-02-10T11:19:16;24.30;;;11.27;;
53545;SDS011;39432;51.902;10.844;2023-02-10T11:21:51;22.88;;;10.60;;
53545;SDS011;39432;51.902;10.844;2023-02-10T11:24:22;22.70;;;10.07;;
53545;SDS011;39432;51.902;10.844;2023-02-10T11:27:00;32.72;;;11.10;;
53545;SDS011;39432;51.902;10.844;2023-02-10T11:29:33;23.33;;;11.98;;
53545;SDS011;39432;51.902;10.844;2023-02-10T11:32:15;23.92;;;10.85;;
53545;SDS011;39432;51.902;10.844;2023-02-10T11:34:48;27.38;;;13.00;;
53545;SDS011;39432;51.902;10.844;2023-02-10T11:37:21;22.65;;;10.73;;
53545;SDS011;39432;51.902;10.844;2023-02-10T11:39:55;19.80;;;11.02;;
53545;SDS011;39432;51.902;10.844;2023-02-10T11:42:30;21.52;;;11.05;;
53545;SDS011;39432;51.902;10.844;2023-02-10T11:45:01;22.88;;;10.95;;
53545;SDS011;39432;51.902;10.844;2023-02-10T11:47:44;24.27;;;11.13;;
53545;SDS011;39432;51.902;10.844;2023-02-10T11:50:19;23.88;;;10.52;;
53545;SDS011;39432;51.902;10.844;2023-02-10T11:52:49;20.23;;;8.40;;
53545;SDS011;39432;51.902;10.844;2023-02-10T11:55:19;31.23;;;15.07;;
53545;SDS011;39432;51.902;10.844;2023-02-10T11:57:58;21.85;;;9.77;;
53545;SDS011;39432;51.902;10.844;2023-02-10T12:01:13;15.88;;;9.52;;
53545;SDS011;39432;51.902;10.844;2023-02-10T12:03:56;24.02;;;11.07;;
53545;SDS011;39432;51.902;10.844;2023-02-10T12:06:33;19.27;;;8.75;;
53545;SDS011;39432;51.902;10.844;2023-02-10T12:09:08;22.00;;;10.52;;
53545;SDS011;39432;51.902;10.844;2023-02-10T12:11:49;24.83;;;11.00;;
53545;SDS011;39432;51.902;10.844;2023-02-10T12:14:40;25.73;;;11.80;;
53545;SDS011;39432;51.902;10.844;2023-02-10T12:17:24;23.58;;;10.80;;
53545;SDS011;39432;51.902;10.844;2023-02-10T12:19:59;23.33;;;11.93;;
53545;SDS011;39432;51.902;10.844;2023-02-10T12:22:44;25.90;;;10.70;;
53545;SDS011;39432;51.902;10.844;2023-02-10T12:25:30;18.40;;;10.63;;
53545;SDS011;39432;51.902;10.844;2023-02-10T12:28:08;22.67;;;10.23;;
53545;SDS011;39432;51.902;10.844;2023-02-10T12:30:49;21.52;;;10.20;;
53545;SDS011;39432;51.902;10.844;2023-02-10T12:33:44;23.02;;;12.00;;
53545;SDS011;39432;51.902;10.844;2023-02-10T12:36:22;21.98;;;10.93;;
53545;SDS011;39432;51.902;10.844;2023-02-10T12:39:02;22.70;;;11.35;;
53545;SDS011;39432;51.902;10.844;2023-02-10T12:41:41;26.83;;;11.30;;
53545;SDS011;39432;51.902;10.844;2023-02-10T12:44:23;22.42;;;12.50;;
53545;SDS011;39432;51.902;10.844;2023-02-10T12:47:09;22.98;;;11.52;;
53545;SDS011;39432;51.902;10.844;2023-02-10T12:49:55;27.42;;;12.65;;
53545;SDS011;39432;51.902;10.844;2023-02-10T12:52:32;24.45;;;11.23;;
53545;SDS011;39432;51.902;10.844;2023-02-10T12:55:10;23.33;;;11.50;;
53545;SDS011;39432;51.902;10.844;2023-02-10T12:57:45;24.88;;;11.95;;
53545;SDS011;39432;51.902;10.844;2023-02-10T13:00:19;25.17;;;11.23;;
53545;SDS011;39432;51.902;10.844;2023-02-10T13:02:56;23.67;;;11.73;;
53545;SDS011;39432;51.902;10.844;2023-02-10T13:05:31;24.58;;;11.05;;
53545;SDS011;39432;51.902;10.844;2023-02-10T13:08:05;25.70;;;12.40;;
53545;SDS011;39432;51.902;10.844;2023-02-10T13:10:42;27.27;;;13.50;;
53545;SDS011;39432;51.902;10.844;2023-02-10T13:13:15;23.65;;;11.35;;
53545;SDS011;39432;51.902;10.844;2023-02-10T13:15:49;23.50;;;11.57;;
53545;SDS011;39432;51.902;10.844;2023-02-10T13:18:26;19.38;;;11.07;;
53545;SDS011;39432;51.902;10.844;2023-02-10T13:21:00;25.67;;;11.88;;
53545;SDS011;39432;51.902;10.844;2023-02-10T13:23:36;22.05;;;11.85;;
53545;SDS011;39432;51.902;10.844;2023-02-10T13:29:09;27.02;;;11.98;;
53545;SDS011;39432;51.902;10.844;2023-02-10T13:31:56;22.13;;;10.35;;
53545;SDS011;39432;51.902;10.844;2023-02-10T13:34:39;26.10;;;11.25;;
53545;SDS011;39432;51.902;10.844;2023-02-10T13:37:12;19.98;;;10.43;;
53545;SDS011;39432;51.902;10.844;2023-02-10T13:39:48;18.98;;;10.43;;
53545;SDS011;39432;51.902;10.844;2023-02-10T13:42:22;19.52;;;10.27;;
53545;SDS011;39432;51.902;10.844;2023-02-10T13:44:59;23.30;;;12.53;;
53545;SDS011;39432;51.902;10.844;2023-02-10T13:47:33;17.95;;;10.95;;
53545;SDS011;39432;51.902;10.844;2023-02-10T13:50:17;20.27;;;10.70;;
53545;SDS011;39432;51.902;10.844;2023-02-10T13:52:56;17.10;;;9.70;;
53545;SDS011;39432;51.902;10.844;2023-02-10T13:55:36;21.95;;;10.02;;
53545;SDS011;39432;51.902;10.844;2023-02-10T14:01:02;20.05;;;10.63;;
53545;SDS011;39432;51.902;10.844;2023-02-10T14:03:32;17.38;;;9.98;;
53545;SDS011;39432;51.902;10.844;2023-02-10T14:06:06;22.55;;;10.38;;
53545;SDS011;39432;51.902;10.844;2023-02-10T14:08:37;21.10;;;9.73;;
53545;SDS011;39432;51.902;10.844;2023-02-10T14:11:29;18.67;;;9.88;;
53545;SDS011;39432;51.902;10.844;2023-02-10T14:14:15;22.60;;;10.07;;
53545;SDS011;39432;51.902;10.844;2023-02-10T14:16:49;22.38;;;10.23;;
53545;SDS011;39432;51.902;10.844;2023-02-10T14:19:20;19.85;;;10.32;;
53545;SDS011;39432;51.902;10.844;2023-02-10T14:21:54;20.73;;;11.05;;
53545;SDS011;39432;51.902;10.844;2023-02-10T14:24:26;21.42;;;11.45;;
53545;SDS011;39432;51.902;10.844;2023-02-10T14:27:14;25.55;;;12.65;;
53545;SDS011;39432;51.902;10.844;2023-02-10T14:29:46;36.17;;;16.40;;
53545;SDS011;39432;51.902;10.844;2023-02-10T14:32:17;23.23;;;12.00;;
53545;SDS011;39432;51.902;10.844;2023-02-10T14:34:55;20.38;;;10.45;;
53545;SDS011;39432;51.902;10.844;2023-02-10T14:37:29;20.33;;;9.85;;
53545;SDS011;39432;51.902;10.844;2023-02-10T14:40:00;19.83;;;10.18;;
53545;SDS011;39432;51.902;10.844;2023-02-10T14:42:32;25.85;;;10.60;;
53545;SDS011;39432;51.902;10.844;2023-02-10T14:45:02;18.88;;;9.07;;
53545;SDS011;39432;51.902;10.844;2023-02-10T14:47:33;17.10;;;8.45;;
53545;SDS011;39432;51.902;10.844;2023-02-10T14:50:20;14.70;;;7.75;;
53545;SDS011;39432;51.902;10.844;2023-02-10T14:52:54;16.98;;;8.68;;
53545;SDS011;39432;51.902;10.844;2023-02-10T14:55:25;16.33;;;7.85;;
53545;SDS011;39432;51.902;10.844;2023-02-10T14:57:58;22.23;;;9.57;;
53545;SDS011;39432;51.902;10.844;2023-02-10T15:00:34;17.40;;;7.90;;